createdAt,value
2018-06-10T23:02:46.047Z,64.62
2018-06-10T23:05:16.771Z,64.84
2018-06-10T23:07:48.279Z,65.14
2018-06-10T23:08:55.093Z,64.86
2018-06-10T23:10:00.226Z,64.86
2018-06-10T23:11:06.905Z,64.99
2018-06-10T23:12:14.084Z,64.40
2018-06-10T23:13:19.164Z,65.67
2018-06-10T23:19:57.064Z,56.95
2018-06-10T23:21:02.981Z,56.00
2018-06-10T23:22:10.629Z,58.12
2018-06-10T23:23:15.770Z,58.69
2018-06-10T23:24:21.085Z,56.18
2018-06-10T23:25:26.267Z,57.69
2018-06-10T23:26:35.760Z,55.52
2018-06-10T23:27:42.880Z,55.81
2018-06-10T23:28:48.263Z,56.70
2018-06-10T23:29:55.670Z,53.39
2018-06-10T23:31:00.837Z,50.99
2018-06-10T23:32:07.688Z,48.58
2018-06-10T23:33:15.440Z,47.47
2018-06-10T23:34:20.379Z,45.69
2018-06-10T23:35:26.452Z,43.96
2018-06-10T23:36:33.369Z,45.22
2018-06-10T23:37:43.316Z,46.17
2018-06-10T23:38:48.699Z,46.56
2018-06-10T23:39:53.900Z,46.47
2018-06-10T23:40:59.697Z,47.61
2018-06-10T23:42:06.170Z,46.74
2018-06-10T23:43:13.501Z,47.75
2018-06-10T23:47:03.226Z,49.83
2018-06-10T23:48:10.303Z,50.83
2018-06-10T23:49:17.221Z,52.36
2018-06-10T23:50:23.062Z,53.70
2018-06-10T23:51:28.438Z,56.08
2018-06-10T23:52:33.835Z,56.82
2018-06-10T23:53:40.369Z,57.63
2018-06-10T23:54:45.477Z,59.35
2018-06-10T23:55:51.463Z,59.73
2018-06-10T23:56:58.740Z,61.16
2018-06-10T23:58:04.721Z,62.40
2018-06-10T23:59:17.575Z,62.30
